Time;durP1;ratioP1;P1;durP2;ratioP2;P2;SDS_P1;SDS_P2;PMS_P1;PMS_P2;Temp;Humidity;BMP_temperature;BMP_pressure;BME280_temperature;BME280_humidity;BME280_pressure;Samples;Min_cycle;Max_cycle;Signal;HPM_P1;HPM_P2
2023/04/09 00:00:19;;;;;;;37.05;24.48;;;;;;;15.70;39.77;93771.41;5010447;23;20073;-92
2023/04/09 00:02:45;;;;;;;36.50;23.88;;;;;;;15.72;39.62;93765.47;4990342;28;20034;-92
2023/04/09 00:05:11;;;;;;;35.22;23.38;;;;;;;15.71;39.56;93759.28;5024219;28;20053;-92
2023/04/09 00:07:37;;;;;;;30.48;22.95;;;;;;;15.75;39.86;93759.06;5013320;28;20045;-91
2023/04/09 00:10:07;;;;;;;34.90;24.98;;;;;;;15.72;39.87;93760.03;5025826;28;20037;-92
2023/04/09 00:12:33;;;;;;;33.30;23.88;;;;;;;15.71;39.79;93761.25;5020193;28;20030;-92
2023/04/09 00:15:01;;;;;;;34.45;24.70;;;;;;;15.76;39.96;93766.75;5015964;28;20511;-91
2023/04/09 00:17:29;;;;;;;33.40;23.17;;;;;;;15.74;39.89;93758.31;5019391;28;20523;-91
2023/04/09 00:19:55;;;;;;;32.22;21.35;;;;;;;15.74;39.86;93757.56;4988787;28;20034;-92
2023/04/09 00:22:20;;;;;;;34.35;23.77;;;;;;;15.70;39.61;93760.50;5019298;28;20037;-92
2023/04/09 00:24:45;;;;;;;35.70;23.55;;;;;;;15.72;39.94;93757.28;5002890;28;20030;-92
2023/04/09 00:27:11;;;;;;;31.80;21.80;;;;;;;15.74;39.87;93754.84;4998123;28;20050;-92
2023/04/09 00:32:02;;;;;;;30.48;21.88;;;;;;;15.69;39.70;93734.47;5007122;23;20046;-92
2023/04/09 00:34:28;;;;;;;31.08;21.80;;;;;;;15.71;39.68;93744.91;4981764;28;20068;-92
2023/04/09 00:36:53;;;;;;;31.92;21.40;;;;;;;15.72;39.90;93751.84;5002851;28;20045;-92
2023/04/09 00:39:19;;;;;;;32.05;21.88;;;;;;;15.66;40.00;93743.63;5003054;28;20045;-92
2023/04/09 00:41:44;;;;;;;31.58;22.25;;;;;;;15.68;39.54;93749.34;5021058;28;20084;-91
2023/04/09 00:44:10;;;;;;;28.00;21.52;;;;;;;15.67;39.59;93752.53;4999840;28;20041;-93
2023/04/09 00:46:37;;;;;;;28.05;21.30;;;;;;;15.69;39.71;93750.09;4987518;28;20046;-93
2023/04/09 00:49:04;;;;;;;27.02;20.55;;;;;;;15.77;39.65;93745.69;4956809;28;20086;-93
2023/04/09 00:51:30;;;;;;;29.88;21.42;;;;;;;15.75;39.79;93759.06;4963778;28;20050;-92
2023/04/09 00:53:56;;;;;;;31.20;21.30;;;;;;;15.74;39.57;93750.13;4958513;28;20038;-92
2023/04/09 00:56:21;;;;;;;29.58;21.05;;;;;;;15.70;39.56;93748.84;4999783;28;20074;-92
2023/04/09 00:58:47;;;;;;;28.20;20.23;;;;;;;15.69;39.60;93755.53;4982939;28;20034;-92
2023/04/09 01:01:12;;;;;;;30.33;20.08;;;;;;;15.69;39.96;93745.38;4982652;28;20107;-92
2023/04/09 01:03:37;;;;;;;28.83;20.15;;;;;;;15.70;39.66;93755.06;4928021;29;20036;-92
2023/04/09 01:06:15;;;;;;;29.77;20.25;;;;;;;15.69;39.85;93753.56;4944891;29;20035;-92
2023/04/09 01:08:43;;;;;;;27.50;19.67;;;;;;;15.66;39.97;93749.06;4944317;29;20040;-93
2023/04/09 01:11:24;;;;;;;31.05;19.73;;;;;;;15.69;39.72;93750.09;4962229;28;20039;-91
2023/04/09 01:13:57;;;;;;;28.95;20.50;;;;;;;15.70;39.62;93746.88;4966713;28;20215;-92
2023/04/09 01:16:23;;;;;;;28.50;18.33;;;;;;;15.69;39.90;93744.63;4951934;28;20063;-92
2023/04/09 01:19:02;;;;;;;31.42;19.67;;;;;;;15.69;39.76;93748.09;4943738;28;20090;-92
2023/04/09 01:21:31;;;;;;;28.13;19.77;;;;;;;15.68;39.39;93745.88;4964692;28;20042;-92
2023/04/09 01:24:21;;;;;;;29.35;19.52;;;;;;;15.70;40.03;93751.59;4931596;29;20051;-91
2023/04/09 01:27:04;;;;;;;29.60;19.70;;;;;;;15.71;40.21;93748.38;4965627;28;20047;-94
2023/04/09 01:29:40;;;;;;;25.05;18.95;;;;;;;15.68;39.73;93746.63;4940304;28;20129;-92
2023/04/09 01:32:06;;;;;;;27.02;18.27;;;;;;;15.67;39.81;93750.56;4949337;28;20039;-91
2023/04/09 01:34:31;;;;;;;28.10;18.52;;;;;;;15.68;39.92;93752.06;4956457;28;20449;-92
2023/04/09 01:36:59;;;;;;;27.95;19.42;;;;;;;15.67;40.03;93750.56;4986561;28;20045;-92
2023/04/09 01:39:30;;;;;;;27.23;18.85;;;;;;;15.66;39.95;93745.59;4987357;28;20054;-91
2023/04/09 01:41:56;;;;;;;26.42;17.88;;;;;;;15.69;39.99;93744.63;4973125;28;20018;-92
2023/04/09 01:44:22;;;;;;;29.70;19.33;;;;;;;15.65;39.85;93744.84;5004036;23;20058;-92
2023/04/09 01:46:48;;;;;;;25.77;17.58;;;;;;;15.67;39.90;93747.84;4990197;28;20062;-91
2023/04/09 01:49:15;;;;;;;24.08;17.02;;;;;;;15.65;40.04;93733.19;5014117;28;20037;-92
2023/04/09 01:51:40;;;;;;;25.63;17.63;;;;;;;15.67;39.79;93747.09;5001503;28;20567;-93
2023/04/09 01:54:07;;;;;;;25.75;17.83;;;;;;;15.69;39.89;93748.09;5001846;28;20042;-92
2023/04/09 01:56:44;;;;;;;23.83;16.73;;;;;;;15.68;39.97;93749.34;5001099;28;20053;-93
2023/04/09 01:59:09;;;;;;;23.40;16.75;;;;;;;15.67;39.91;93741.66;4976144;28;20058;-92
2023/04/09 02:01:45;;;;;;;26.98;18.92;;;;;;;15.68;39.70;93746.63;4957990;28;20049;-91
2023/04/09 02:04:19;;;;;;;28.08;17.65;;;;;;;15.69;39.97;93753.56;4984799;28;20038;-92
2023/04/09 02:07:08;;;;;;;27.33;17.15;;;;;;;15.74;39.79;93755.59;4983525;28;20031;-92
2023/04/09 02:09:35;;;;;;;22.83;16.58;;;;;;;15.70;39.88;93755.06;4976825;28;20038;-91
2023/04/09 02:12:04;;;;;;;21.42;16.13;;;;;;;15.77;39.89;93751.91;4984978;28;20042;-91
2023/04/09 02:14:32;;;;;;;22.08;15.93;;;;;;;15.74;39.89;93746.66;4968324;28;20586;-92
2023/04/09 02:16:59;;;;;;;24.02;17.38;;;;;;;15.70;39.89;93740.69;4991592;23;20050;-92
2023/04/09 02:19:39;;;;;;;23.42;16.80;;;;;;;15.70;39.86;93754.31;4994794;28;20038;-92
2023/04/09 02:22:13;;;;;;;20.88;16.48;;;;;;;15.69;39.80;93739.94;5022598;28;20053;-92
2023/04/09 02:24:39;;;;;;;22.65;16.10;;;;;;;15.70;40.08;93740.69;5025485;28;20048;-92
2023/04/09 02:27:05;;;;;;;22.17;16.58;;;;;;;15.67;40.03;93744.38;5004024;28;20102;-91
2023/04/09 02:29:39;;;;;;;21.83;16.17;;;;;;;15.69;39.86;93744.63;4986997;28;20038;-92
2023/04/09 02:32:05;;;;;;;23.77;16.77;;;;;;;15.67;40.11;93741.66;5001164;28;20038;-92
2023/04/09 02:34:30;;;;;;;23.77;16.58;;;;;;;15.67;40.03;93741.66;4994250;28;20128;-91
2023/04/09 02:36:56;;;;;;;20.42;14.48;;;;;;;15.66;40.18;93742.88;5005801;28;20034;-92
2023/04/09 02:39:26;;;;;;;21.83;15.73;;;;;;;15.64;39.86;93743.34;4974220;28;20065;-91
2023/04/09 02:41:52;;;;;;;20.58;15.85;;;;;;;15.67;40.12;93730.75;5000080;28;20042;-92
2023/04/09 02:44:17;;;;;;;22.13;15.45;;;;;;;15.69;39.92;93739.94;4964191;28;20054;-91
2023/04/09 02:46:59;;;;;;;21.35;15.18;;;;;;;15.65;39.96;93733.19;4988149;28;20041;-91
2023/04/09 02:49:26;;;;;;;22.90;14.75;;;;;;;15.66;40.04;93732.72;4994798;28;20553;-92
2023/04/09 02:51:51;;;;;;;21.00;15.90;;;;;;;15.64;40.13;93729.72;4997855;28;20031;-92
2023/04/09 02:54:17;;;;;;;19.80;14.25;;;;;;;15.67;40.12;93722.56;4982197;28;20054;-91
2023/04/09 02:56:43;;;;;;;20.00;14.77;;;;;;;15.68;39.77;93732.97;4956630;28;20046;-91
2023/04/09 02:59:10;;;;;;;19.10;14.55;;;;;;;15.64;39.76;93727.00;4969327;28;20046;-92
2023/04/09 03:01:36;;;;;;;21.58;15.52;;;;;;;15.62;40.01;93737.63;4985669;28;20053;-91
2023/04/09 03:04:06;;;;;;;18.63;14.55;;;;;;;15.64;40.12;93729.72;4986947;28;20046;-91
2023/04/09 03:06:31;;;;;;;20.88;15.65;;;;;;;15.65;39.96;93730.47;5007619;22;20047;-91
2023/04/09 03:08:58;;;;;;;19.23;13.90;;;;;;;15.68;40.11;93727.53;4983012;28;20122;-91
2023/04/09 03:11:24;;;;;;;20.38;15.27;;;;;;;15.64;39.88;93729.72;5020424;28;20041;-91
2023/04/09 03:13:51;;;;;;;17.85;13.63;;;;;;;15.64;40.15;93735.19;5020893;28;20057;-90
2023/04/09 03:16:17;;;;;;;21.17;15.00;;;;;;;15.64;40.29;93734.44;5001778;28;20064;-91
2023/04/09 03:21:07;;;;;;;20.17;15.18;;;;;;;15.64;39.87;93723.53;4997537;22;20041;-91
2023/04/09 03:23:33;;;;;;;19.17;14.32;;;;;;;15.65;39.92;93728.50;4969532;28;20094;-91
2023/04/09 03:26:09;;;;;;;20.50;13.45;;;;;;;15.67;40.00;93728.00;4965706;28;20051;-91
2023/04/09 03:28:35;;;;;;;19.58;13.85;;;;;;;15.63;40.15;93722.78;4975006;28;20045;-91
2023/04/09 03:31:02;;;;;;;19.15;14.88;;;;;;;15.64;40.16;93720.81;5015875;28;20488;-91
2023/04/09 03:33:27;;;;;;;19.70;13.82;;;;;;;15.71;40.09;93718.41;4989635;28;20045;-92
2023/04/09 03:35:53;;;;;;;18.42;14.43;;;;;;;15.67;39.71;93715.13;4990065;28;20054;-91
2023/04/09 03:38:22;;;;;;;18.80;13.90;;;;;;;15.65;39.99;93725.03;4969012;28;20112;-91
2023/04/09 03:40:47;;;;;;;17.05;13.20;;;;;;;15.72;39.97;93721.88;5016122;28;20093;-91
2023/04/09 03:43:13;;;;;;;19.40;13.75;;;;;;;15.66;39.86;93721.81;4990052;28;20065;-91
2023/04/09 03:45:38;;;;;;;19.55;13.43;;;;;;;15.63;39.80;93720.06;4983552;28;20411;-93
2023/04/09 03:48:04;;;;;;;20.13;13.73;;;;;;;15.64;39.80;93721.56;4997951;28;20069;-91
2023/04/09 03:50:29;;;;;;;21.67;14.35;;;;;;;15.63;39.99;93722.03;4994609;28;20049;-91
2023/04/09 03:52:54;;;;;;;19.63;13.63;;;;;;;15.64;39.89;93718.09;4969553;28;20043;-91
2023/04/09 03:55:23;;;;;;;20.13;13.90;;;;;;;15.62;39.95;93726.75;4976658;28;20035;-91
2023/04/09 03:57:55;;;;;;;16.20;13.52;;;;;;;15.61;40.11;93724.50;5017994;28;20042;-92
2023/04/09 04:00:21;;;;;;;19.02;13.63;;;;;;;15.68;39.98;93729.50;5021277;28;20045;-92
2023/04/09 04:02:50;;;;;;;17.77;13.57;;;;;;;15.68;40.36;93721.34;4971976;28;20034;-91
2023/04/09 04:05:16;;;;;;;18.08;13.02;;;;;;;15.60;39.92;93718.31;4995554;23;20124;-91
2023/04/09 04:07:42;;;;;;;18.27;12.48;;;;;;;15.61;39.97;93722.53;4992459;28;20056;-91
2023/04/09 04:10:09;;;;;;;16.08;13.25;;;;;;;15.59;39.85;93730.44;5017140;28;20088;-91
2023/04/09 04:12:37;;;;;;;17.38;12.95;;;;;;;15.63;39.92;93735.66;5016187;23;20038;-91
2023/04/09 04:15:04;;;;;;;16.83;12.57;;;;;;;15.59;40.09;93735.88;4992508;28;20034;-92
2023/04/09 04:17:29;;;;;;;17.90;12.40;;;;;;;15.56;40.05;93739.59;5002637;28;20104;-91
2023/04/09 04:19:56;;;;;;;17.35;12.45;;;;;;;15.61;39.98;93746.28;5008223;28;20046;-91
2023/04/09 04:22:22;;;;;;;18.02;12.27;;;;;;;15.61;40.05;93744.31;4962240;28;20043;-92
2023/04/09 04:24:47;;;;;;;17.65;12.88;;;;;;;15.60;40.15;93740.09;4980675;22;20104;-92
2023/04/09 04:27:13;;;;;;;17.42;12.75;;;;;;;15.65;40.51;93750.31;5003806;28;20029;-92
2023/04/09 04:32:06;;;;;;;15.80;12.32;;;;;;;15.60;40.21;93736.63;5009568;22;20050;-91
2023/04/09 04:34:33;;;;;;;16.00;12.68;;;;;;;15.59;40.05;93741.31;4962344;28;20039;-91
2023/04/09 04:36:58;;;;;;;16.08;11.82;;;;;;;15.60;40.01;93739.34;4990040;22;20077;-92
2023/04/09 04:39:24;;;;;;;16.15;11.98;;;;;;;15.56;40.18;93745.03;4950501;28;20551;-92
2023/04/09 04:41:50;;;;;;;16.45;11.77;;;;;;;15.57;39.98;93743.81;4996561;22;20065;-91
2023/04/09 04:44:16;;;;;;;17.05;12.02;;;;;;;15.60;40.20;93739.34;4985012;28;20034;-91
2023/04/09 04:46:41;;;;;;;16.98;12.25;;;;;;;15.58;40.11;93747.28;5002834;28;20045;-91
2023/04/09 04:49:07;;;;;;;17.23;12.00;;;;;;;15.61;40.47;93738.13;5063877;28;20053;-92
2023/04/09 04:51:33;;;;;;;17.40;11.95;;;;;;;15.58;39.99;93736.38;5033056;22;20046;-91
2023/04/09 04:54:02;;;;;;;16.00;11.50;;;;;;;15.59;40.34;93746.78;4962779;28;20049;-91
2023/04/09 04:56:27;;;;;;;15.82;11.70;;;;;;;15.58;40.11;93753.50;4981224;28;20043;-92
2023/04/09 04:58:52;;;;;;;16.30;11.50;;;;;;;15.55;40.30;93748.97;4959027;28;20051;-91
2023/04/09 05:01:19;;;;;;;17.50;11.68;;;;;;;15.57;40.09;93756.69;4998034;28;20420;-91
2023/04/09 05:03:44;;;;;;;17.17;12.10;;;;;;;15.60;40.27;93759.19;4957206;28;20034;-91
2023/04/09 05:06:13;;;;;;;15.27;11.75;;;;;;;15.58;40.19;93750.00;4986105;28;20062;-91
2023/04/09 05:08:38;;;;;;;15.05;11.63;;;;;;;15.54;39.97;93747.47;4987173;28;20129;-91
2023/04/09 05:11:04;;;;;;;14.60;10.35;;;;;;;15.52;40.13;93752.66;4970732;28;20053;-91
2023/04/09 05:13:29;;;;;;;16.33;11.68;;;;;;;15.54;40.19;93742.03;4971135;28;20038;-90
2023/04/09 05:15:55;;;;;;;14.40;11.35;;;;;;;15.59;40.16;93754.22;4967609;28;20180;-91
2023/04/09 05:18:20;;;;;;;15.20;11.68;;;;;;;15.64;40.28;93748.81;4967064;28;20034;-91
2023/04/09 05:20:46;;;;;;;15.35;11.00;;;;;;;15.60;40.16;93750.25;4953744;29;20039;-91
2023/04/09 05:23:14;;;;;;;16.95;11.77;;;;;;;15.61;39.97;93751.75;4945276;23;20058;-91
2023/04/09 05:25:40;;;;;;;13.82;11.00;;;;;;;15.62;40.46;93759.44;5013033;28;20038;-91
2023/04/09 05:28:10;;;;;;;15.88;11.45;;;;;;;15.59;40.19;93756.97;4983639;23;20046;-91
2023/04/09 05:30:36;;;;;;;16.33;12.32;;;;;;;15.57;40.50;93765.63;4973218;28;20053;-92
2023/04/09 05:33:02;;;;;;;14.60;11.35;;;;;;;15.57;40.18;93760.16;5004948;28;20034;-91
2023/04/09 05:35:28;;;;;;;14.63;11.77;;;;;;;15.59;39.78;93759.69;5024161;22;20132;-91
2023/04/09 05:37:53;;;;;;;15.43;10.48;;;;;;;15.66;40.21;93778.31;5020197;28;20038;-92
2023/04/09 05:40:19;;;;;;;14.48;10.95;;;;;;;15.59;39.96;93773.31;4997264;28;20046;-92
2023/04/09 05:42:45;;;;;;;15.73;11.25;;;;;;;15.65;40.19;93774.81;4976029;28;20074;-91
2023/04/09 05:45:11;;;;;;;14.68;11.13;;;;;;;15.59;40.18;93767.88;5002151;28;20038;-92
2023/04/09 05:50:02;;;;;;;14.02;10.80;;;;;;;15.57;40.19;93768.34;5006607;22;20050;-92
2023/04/09 05:52:27;;;;;;;16.80;11.13;;;;;;;15.55;40.32;93775.47;5008297;23;20046;-92
2023/04/09 05:54:53;;;;;;;14.82;11.60;;;;;;;15.57;40.36;93778.50;5002345;28;20049;-93
2023/04/09 05:57:18;;;;;;;14.90;10.82;;;;;;;15.57;40.17;93778.50;4985447;28;20057;-91
2023/04/09 05:59:44;;;;;;;13.40;10.90;;;;;;;15.59;40.31;93778.75;5005487;28;20038;-91
2023/04/09 06:02:09;;;;;;;15.13;10.73;;;;;;;15.60;40.47;93783.69;5004650;28;20030;-92
2023/04/09 06:04:35;;;;;;;15.35;11.07;;;;;;;15.58;40.22;93774.53;5039863;28;20492;-92
2023/04/09 06:07:00;;;;;;;13.00;10.25;;;;;;;15.57;40.56;93792.13;5022619;28;20045;-92
2023/04/09 06:09:27;;;;;;;13.75;10.45;;;;;;;15.56;40.22;93785.91;5021890;28;20073;-91
2023/04/09 06:11:52;;;;;;;15.50;11.20;;;;;;;15.56;40.34;93790.63;5017015;28;20030;-92
2023/04/09 06:14:19;;;;;;;12.93;9.82;;;;;;;15.63;40.68;93788.19;5023641;28;20520;-91
2023/04/09 06:16:45;;;;;;;13.07;9.80;;;;;;;15.57;40.17;93790.13;5024317;28;20033;-91
2023/04/09 06:19:11;;;;;;;14.23;10.32;;;;;;;15.54;39.98;93801.22;4978939;28;20046;-91
2023/04/09 06:21:39;;;;;;;13.45;10.38;;;;;;;15.55;40.46;93797.28;5009590;28;20053;-91
2023/04/09 06:24:08;;;;;;;13.15;10.05;;;;;;;15.55;40.46;93787.13;4985480;28;20110;-91
2023/04/09 06:26:55;;;;;;;12.95;9.48;;;;;;;15.55;40.30;93787.13;5003226;28;20042;-91
2023/04/09 06:29:21;;;;;;;13.18;9.40;;;;;;;15.52;40.06;93796.25;4969972;28;20043;-91
2023/04/09 06:31:47;;;;;;;13.98;10.15;;;;;;;15.57;39.92;93797.56;5038324;28;20103;-91
2023/04/09 06:34:13;;;;;;;12.60;10.40;;;;;;;15.52;40.36;93798.97;5007625;28;20061;-91
2023/04/09 06:36:43;;;;;;;13.40;9.95;;;;;;;15.56;40.22;93802.28;5001893;28;20499;-91
2023/04/09 06:39:12;;;;;;;13.80;10.10;;;;;;;15.62;40.68;93800.31;5016561;22;20057;-91
2023/04/09 06:41:37;;;;;;;14.18;9.85;;;;;;;15.61;40.08;93800.78;5019755;28;20052;-92
2023/04/09 06:44:03;;;;;;;12.65;9.77;;;;;;;15.56;40.19;93809.69;4974070;23;20051;-92
2023/04/09 06:46:28;;;;;;;13.23;9.68;;;;;;;15.55;40.28;93805.44;4972755;28;20053;-92
2023/04/09 06:48:54;;;;;;;12.13;9.23;;;;;;;15.55;39.97;93813.63;5002884;28;20035;-92
2023/04/09 06:51:20;;;;;;;13.55;9.68;;;;;;;15.56;40.29;93813.16;4977893;28;20035;-92
2023/04/09 06:53:47;;;;;;;10.88;8.88;;;;;;;15.54;40.12;93815.59;4978858;28;20529;-91
2023/04/09 06:56:12;;;;;;;12.30;9.40;;;;;;;15.57;40.21;93819.38;4969420;28;20489;-91
2023/04/09 06:58:37;;;;;;;15.60;10.55;;;;;;;15.55;40.18;93822.53;4950458;28;20030;-92
2023/04/09 07:01:03;;;;;;;11.73;9.45;;;;;;;15.55;40.23;93819.06;4978042;22;20041;-91
2023/04/09 07:03:29;;;;;;;11.52;8.80;;;;;;;15.54;40.39;93814.84;4986346;28;20034;-91
2023/04/09 07:05:56;;;;;;;11.63;8.85;;;;;;;15.54;40.45;93812.88;4977053;23;20123;-92
2023/04/09 07:08:36;;;;;;;12.10;9.40;;;;;;;15.59;40.39;93831.25;5000451;28;20027;-91
2023/04/09 07:11:02;;;;;;;12.55;9.50;;;;;;;15.56;40.26;93826.03;4981739;28;20491;-92
2023/04/09 07:13:27;;;;;;;12.27;9.23;;;;;;;15.62;40.09;93830.28;5002964;28;20041;-91
2023/04/09 07:15:53;;;;;;;11.82;9.23;;;;;;;15.56;40.26;93834.97;5011919;28;20059;-91
2023/04/09 07:18:19;;;;;;;11.73;9.27;;;;;;;15.54;40.30;93839.38;5018078;28;20061;-91
2023/04/09 07:20:44;;;;;;;12.20;9.00;;;;;;;15.57;40.26;93841.16;5002721;28;20046;-92
2023/04/09 07:23:10;;;;;;;12.70;9.10;;;;;;;15.59;40.08;93835.97;4981806;28;20049;-91
2023/04/09 07:25:36;;;;;;;11.75;9.55;;;;;;;15.55;40.12;93829.97;4986243;28;20052;-91
2023/04/09 07:28:01;;;;;;;10.88;8.57;;;;;;;15.57;40.32;93847.38;5024084;22;20449;-91
2023/04/09 07:30:27;;;;;;;11.68;9.13;;;;;;;15.60;40.62;93849.09;4966647;28;20065;-91
2023/04/09 07:32:53;;;;;;;12.02;8.70;;;;;;;15.62;40.19;93852.09;4964878;28;20031;-91
2023/04/09 07:35:20;;;;;;;12.00;8.48;;;;;;;15.62;40.30;93846.66;5003112;28;20037;-91
2023/04/09 07:37:46;;;;;;;10.95;8.40;;;;;;;15.59;40.14;93858.50;4961210;23;20096;-92
2023/04/09 07:40:14;;;;;;;11.85;8.48;;;;;;;15.60;40.38;93854.56;4938616;29;20040;-91
2023/04/09 07:42:39;;;;;;;11.25;8.30;;;;;;;15.62;40.50;93849.38;4902424;29;20135;-91
2023/04/09 07:45:07;;;;;;;9.10;7.45;;;;;;;15.67;40.54;93853.38;4940208;29;20043;-91
2023/04/09 07:47:32;;;;;;;11.88;9.25;;;;;;;15.62;40.06;93845.91;4916904;29;20047;-91
2023/04/09 07:49:58;;;;;;;10.38;7.65;;;;;;;15.58;40.26;93857.03;4935357;23;20018;-91
2023/04/09 07:52:26;;;;;;;11.13;8.18;;;;;;;15.56;40.39;93853.28;4946304;28;20352;-91
2023/04/09 07:54:52;;;;;;;10.25;8.18;;;;;;;15.56;40.37;93856.75;4973124;23;20041;-91
2023/04/09 07:57:18;;;;;;;10.40;7.70;;;;;;;15.58;40.45;93864.47;4971052;28;20055;-91
2023/04/09 07:59:45;;;;;;;9.85;7.65;;;;;;;15.65;40.06;93864.75;4989408;23;20050;-91
2023/04/09 08:02:13;;;;;;;10.07;8.43;;;;;;;15.59;39.85;93863.97;4985040;28;20453;-91
2023/04/09 08:04:42;;;;;;;11.52;8.63;;;;;;;15.58;40.11;93865.22;5020510;28;20038;-92
2023/04/09 08:07:09;;;;;;;10.75;8.35;;;;;;;15.61;40.28;93860.75;5019668;22;20138;-91
2023/04/09 08:09:34;;;;;;;10.90;8.00;;;;;;;15.62;39.96;93870.41;4985675;23;20639;-91
2023/04/09 08:12:00;;;;;;;10.32;8.05;;;;;;;15.61;40.11;93871.66;4985497;28;20049;-91
2023/04/09 08:14:26;;;;;;;9.68;7.50;;;;;;;15.63;40.44;93869.19;4981965;28;20114;-91
2023/04/09 08:16:51;;;;;;;9.98;8.23;;;;;;;15.56;40.25;93864.19;4963543;28;20108;-91
2023/04/09 08:19:18;;;;;;;9.55;7.25;;;;;;;15.61;40.35;93877.84;4967368;28;20433;-91
2023/04/09 08:21:45;;;;;;;11.95;8.32;;;;;;;15.56;40.49;93881.28;4984456;28;20037;-92
2023/04/09 08:24:11;;;;;;;10.32;7.90;;;;;;;15.50;40.40;93875.00;4994046;28;20106;-91
2023/04/09 08:26:40;;;;;;;8.82;6.65;;;;;;;15.54;40.58;93877.53;4953883;28;20038;-91
2023/04/09 08:29:05;;;;;;;9.93;7.43;;;;;;;15.55;40.37;93879.00;4964836;28;20522;-92
2023/04/09 08:31:32;;;;;;;9.70;7.55;;;;;;;15.54;40.13;93878.25;4964508;28;20042;-91
2023/04/09 08:34:00;;;;;;;9.82;6.85;;;;;;;15.59;40.39;93885.03;4973775;28;20137;-91
2023/04/09 08:36:26;;;;;;;9.23;7.95;;;;;;;15.57;39.99;93887.50;4990184;28;20045;-92
2023/04/09 08:38:54;;;;;;;10.23;7.60;;;;;;;15.56;40.29;93886.00;4972391;23;20124;-92
2023/04/09 08:41:23;;;;;;;9.40;7.63;;;;;;;15.54;40.37;93891.13;4989323;28;20038;-92
2023/04/09 08:43:52;;;;;;;10.65;7.50;;;;;;;15.57;40.23;93895.66;5003057;28;20045;-91
2023/04/09 08:46:18;;;;;;;9.18;7.28;;;;;;;15.50;40.40;93896.78;4962141;28;20046;-91
2023/04/09 08:48:46;;;;;;;10.25;7.38;;;;;;;15.54;40.15;93896.59;4966944;28;20050;-93
2023/04/09 08:51:13;;;;;;;9.07;7.13;;;;;;;15.56;40.12;93897.63;4966804;28;20034;-91
2023/04/09 08:53:40;;;;;;;8.98;7.47;;;;;;;15.55;40.24;93898.84;4947453;28;20038;-93
2023/04/09 08:56:06;;;;;;;8.05;6.80;;;;;;;15.65;40.45;93894.00;4947453;28;20034;-91
2023/04/09 08:58:37;;;;;;;8.73;7.32;;;;;;;15.58;40.26;93894.44;4945202;28;20397;-91
2023/04/09 09:01:03;;;;;;;9.05;6.50;;;;;;;15.56;40.33;93896.88;4979609;28;20046;-91
2023/04/09 09:03:29;;;;;;;9.02;6.72;;;;;;;15.55;40.06;93900.81;4981468;28;20391;-91
2023/04/09 09:05:54;;;;;;;8.30;6.72;;;;;;;15.52;40.34;93894.34;4992267;23;20054;-92
2023/04/09 09:08:24;;;;;;;9.07;6.60;;;;;;;15.51;40.37;93897.53;4983046;28;20039;-92
2023/04/09 09:10:50;;;;;;;8.98;7.00;;;;;;;15.57;40.24;93896.41;4982848;28;20046;-91
2023/04/09 09:13:26;;;;;;;8.80;7.05;;;;;;;15.53;40.42;93906.75;4964260;28;20421;-92
2023/04/09 09:16:10;;;;;;;9.63;7.05;;;;;;;15.55;40.35;93900.81;4962473;28;20505;-90
2023/04/09 09:18:40;;;;;;;10.35;6.72;;;;;;;15.62;40.20;93912.06;4983671;28;20074;-92
2023/04/09 09:21:11;;;;;;;9.55;7.38;;;;;;;15.56;40.39;93903.09;4966336;28;20134;-91
2023/04/09 09:23:37;;;;;;;8.25;6.18;;;;;;;15.57;40.40;93904.59;4982644;28;20038;-91
2023/04/09 09:26:17;;;;;;;9.50;7.03;;;;;;;15.55;40.17;93909.72;4965550;28;20066;-91
2023/04/09 09:28:47;;;;;;;8.77;6.70;;;;;;;15.54;40.32;93918.38;4966345;28;20038;-91
2023/04/09 09:31:12;;;;;;;8.40;6.82;;;;;;;15.57;40.36;93912.00;4973044;28;20026;-91
2023/04/09 09:33:38;;;;;;;8.77;6.72;;;;;;;15.57;40.35;93915.50;4968611;28;20069;-91
2023/04/09 09:36:04;;;;;;;10.13;7.38;;;;;;;15.55;40.16;93920.63;4965716;28;20035;-91
2023/04/09 09:38:29;;;;;;;8.05;6.53;;;;;;;15.59;40.54;93917.72;4967525;28;20042;-92
2023/04/09 09:40:55;;;;;;;7.38;6.00;;;;;;;15.60;40.64;93922.69;4985253;28;20042;-91
2023/04/09 09:43:22;;;;;;;7.40;6.03;;;;;;;15.65;40.39;93918.53;4930510;28;20062;-91
2023/04/09 09:45:49;;;;;;;8.07;6.60;;;;;;;15.55;40.52;93923.38;4926968;29;20063;-91
2023/04/09 09:48:15;;;;;;;9.25;6.47;;;;;;;15.55;40.43;93917.16;4912461;29;20067;-91
2023/04/09 09:50:41;;;;;;;8.70;6.45;;;;;;;15.68;40.61;93923.00;4930333;29;20050;-91
2023/04/09 09:53:07;;;;;;;8.95;7.00;;;;;;;15.59;40.03;93918.47;4911632;28;20055;-91
2023/04/09 09:55:41;;;;;;;8.45;6.72;;;;;;;15.62;40.14;93924.94;4931335;29;20075;-91
2023/04/09 09:58:14;;;;;;;8.40;6.22;;;;;;;15.57;40.45;93925.63;4928802;28;20107;-92
2023/04/09 10:00:41;;;;;;;8.50;6.53;;;;;;;15.55;40.47;93922.63;4909287;29;20043;-92
2023/04/09 10:03:20;;;;;;;7.90;6.20;;;;;;;15.56;40.47;93930.34;4909416;29;20035;-93
2023/04/09 10:05:45;;;;;;;9.55;7.00;;;;;;;15.53;40.44;93923.09;4901121;29;20039;-91
2023/04/09 10:08:11;;;;;;;9.25;6.88;;;;;;;15.56;40.18;93927.63;4928614;28;20044;-91
2023/04/09 10:10:38;;;;;;;6.88;6.05;;;;;;;15.62;40.26;93919.47;4928766;29;20553;-92
2023/04/09 10:13:05;;;;;;;8.10;6.38;;;;;;;15.69;40.46;93921.78;4909757;29;20052;-91
2023/04/09 10:15:30;;;;;;;7.68;6.13;;;;;;;15.59;40.23;93918.47;4948726;28;20072;-93
2023/04/09 10:17:56;;;;;;;9.18;6.10;;;;;;;15.61;40.14;93917.97;4947895;28;20635;-92
2023/04/09 10:20:25;;;;;;;10.38;6.68;;;;;;;15.56;40.44;93914.00;4948491;28;20100;-92
2023/04/09 10:22:51;;;;;;;8.60;6.60;;;;;;;15.59;40.21;93912.28;4948398;28;20186;-91
2023/04/09 10:25:16;;;;;;;8.85;6.82;;;;;;;15.59;40.50;93915.00;4948828;28;20035;-91
2023/04/09 10:27:47;;;;;;;8.13;6.32;;;;;;;15.72;40.69;93912.66;4949110;28;20490;-91
2023/04/09 10:30:32;;;;;;;8.82;5.80;;;;;;;15.75;40.30;93915.16;4948752;28;20129;-91
2023/04/09 10:33:12;;;;;;;7.68;5.85;;;;;;;15.68;40.29;93907.41;4945967;28;20054;-91
2023/04/09 10:35:38;;;;;;;7.00;5.30;;;;;;;15.74;40.43;93908.22;4945451;28;20041;-91
2023/04/09 10:38:06;;;;;;;8.27;6.75;;;;;;;15.64;40.15;93909.59;4981240;28;20390;-91
2023/04/09 10:40:33;;;;;;;7.60;6.20;;;;;;;15.59;40.17;93912.28;4985116;28;20038;-91
2023/04/09 10:42:58;;;;;;;8.10;6.25;;;;;;;15.58;40.73;93916.22;4985434;28;20038;-91
2023/04/09 10:45:27;;;;;;;7.95;6.07;;;;;;;15.64;40.47;93914.28;4984444;28;20034;-91
2023/04/09 10:47:53;;;;;;;6.15;4.88;;;;;;;15.70;40.98;93915.84;5017801;28;20054;-92
2023/04/09 10:50:22;;;;;;;7.13;5.65;;;;;;;15.62;40.15;93916.75;4985421;28;20038;-93
2023/04/09 10:52:51;;;;;;;8.88;5.97;;;;;;;15.60;40.44;93919.94;4985705;28;20042;-91
2023/04/09 10:55:29;;;;;;;7.72;6.45;;;;;;;15.64;40.27;93917.03;5023278;28;20113;-91
2023/04/09 10:57:54;;;;;;;8.23;5.97;;;;;;;15.67;40.29;93908.63;5008873;28;20096;-92
2023/04/09 11:00:20;;;;;;;8.93;6.25;;;;;;;15.68;40.23;93912.09;4999939;28;20045;-92
2023/04/09 11:03:01;;;;;;;8.45;6.05;;;;;;;15.64;40.02;93917.78;5000194;28;20038;-91
2023/04/09 11:05:31;;;;;;;8.07;5.65;;;;;;;15.64;40.47;93917.78;5005387;28;20050;-92
2023/04/09 11:08:08;;;;;;;7.00;5.67;;;;;;;15.68;40.53;93915.59;5029414;28;20088;-91
2023/04/09 11:10:35;;;;;;;8.15;5.80;;;;;;;15.65;40.19;93913.06;5004643;28;20066;-92
2023/04/09 11:13:01;;;;;;;8.52;5.90;;;;;;;15.71;40.44;93911.91;5016922;28;20193;-92
2023/04/09 11:15:26;;;;;;;7.50;5.78;;;;;;;15.62;40.36;93920.22;5005755;28;20042;-91
2023/04/09 11:17:53;;;;;;;9.27;6.47;;;;;;;15.59;40.17;93915.72;4995089;28;20053;-92
2023/04/09 11:20:20;;;;;;;6.45;5.60;;;;;;;15.68;40.04;93915.59;4986487;28;20033;-91
2023/04/09 11:22:59;;;;;;;7.68;5.75;;;;;;;15.72;40.72;93915.38;4964250;28;20046;-93
2023/04/09 11:25:27;;;;;;;7.07;5.72;;;;;;;15.64;40.49;93909.59;4963862;28;20118;-91
2023/04/09 11:27:52;;;;;;;7.25;5.70;;;;;;;15.66;40.44;93917.28;4945058;29;20043;-92
2023/04/09 11:30:18;;;;;;;6.68;5.05;;;;;;;15.61;40.36;93913.28;4960987;28;20040;-93
2023/04/09 11:32:44;;;;;;;7.75;5.57;;;;;;;15.65;40.17;93913.06;4945577;29;20047;-93